sensor_id;sensor_type;location;lat;lon;timestamp;P1;durP1;ratioP1;P2;durP2;ratioP2
74845;SDS011;63393;48.758;9.254;2022-09-12T00:02:13;23.92;;;12.98;;
74845;SDS011;63393;48.758;9.254;2022-09-12T00:04:41;20.17;;;10.75;;
74845;SDS011;63393;48.758;9.254;2022-09-12T00:07:10;19.38;;;10.23;;
74845;SDS011;63393;48.758;9.254;2022-09-12T00:09:37;20.88;;;11.27;;
74845;SDS011;63393;48.758;9.254;2022-09-12T00:12:04;24.25;;;11.38;;
74845;SDS011;63393;48.758;9.254;2022-09-12T00:14:32;28.27;;;15.30;;
74845;SDS011;63393;48.758;9.254;2022-09-12T00:16:59;23.40;;;12.27;;
74845;SDS011;63393;48.758;9.254;2022-09-12T00:19:27;19.05;;;10.48;;
74845;SDS011;63393;48.758;9.254;2022-09-12T00:21:54;22.23;;;10.85;;
74845;SDS011;63393;48.758;9.254;2022-09-12T00:24:23;19.10;;;10.18;;
74845;SDS011;63393;48.758;9.254;2022-09-12T00:26:50;21.30;;;10.52;;
74845;SDS011;63393;48.758;9.254;2022-09-12T00:29:18;24.85;;;11.75;;
74845;SDS011;63393;48.758;9.254;2022-09-12T00:31:46;22.83;;;11.85;;
74845;SDS011;63393;48.758;9.254;2022-09-12T00:34:13;23.27;;;12.45;;
74845;SDS011;63393;48.758;9.254;2022-09-12T00:36:40;30.13;;;16.73;;
74845;SDS011;63393;48.758;9.254;2022-09-12T00:39:09;30.85;;;16.20;;
74845;SDS011;63393;48.758;9.254;2022-09-12T00:41:38;36.10;;;20.92;;
74845;SDS011;63393;48.758;9.254;2022-09-12T00:46:48;24.50;;;12.75;;
74845;SDS011;63393;48.758;9.254;2022-09-12T00:49:18;53.70;;;31.58;;
74845;SDS011;63393;48.758;9.254;2022-09-12T00:51:50;23.80;;;11.25;;
74845;SDS011;63393;48.758;9.254;2022-09-12T00:54:19;25.67;;;13.90;;
74845;SDS011;63393;48.758;9.254;2022-09-12T00:56:49;22.20;;;12.32;;
74845;SDS011;63393;48.758;9.254;2022-09-12T00:59:17;28.02;;;14.70;;
74845;SDS011;63393;48.758;9.254;2022-09-12T01:01:46;23.45;;;12.30;;
74845;SDS011;63393;48.758;9.254;2022-09-12T01:04:14;23.67;;;11.65;;
74845;SDS011;63393;48.758;9.254;2022-09-12T01:06:43;26.05;;;13.65;;
74845;SDS011;63393;48.758;9.254;2022-09-12T01:09:11;23.20;;;12.30;;
74845;SDS011;63393;48.758;9.254;2022-09-12T01:11:39;22.70;;;12.05;;
74845;SDS011;63393;48.758;9.254;2022-09-12T01:14:11;23.20;;;12.50;;
74845;SDS011;63393;48.758;9.254;2022-09-12T01:16:39;22.08;;;11.52;;
74845;SDS011;63393;48.758;9.254;2022-09-12T01:19:11;26.20;;;14.70;;
74845;SDS011;63393;48.758;9.254;2022-09-12T01:21:42;23.92;;;12.73;;
74845;SDS011;63393;48.758;9.254;2022-09-12T01:24:25;25.98;;;13.20;;
74845;SDS011;63393;48.758;9.254;2022-09-12T01:32:50;25.63;;;13.88;;
74845;SDS011;63393;48.758;9.254;2022-09-12T01:35:22;24.75;;;12.60;;
74845;SDS011;63393;48.758;9.254;2022-09-12T01:37:53;25.93;;;13.60;;
74845;SDS011;63393;48.758;9.254;2022-09-12T01:40:28;23.23;;;12.45;;
74845;SDS011;63393;48.758;9.254;2022-09-12T01:43:00;23.67;;;11.95;;
74845;SDS011;63393;48.758;9.254;2022-09-12T01:45:31;26.00;;;14.15;;
74845;SDS011;63393;48.758;9.254;2022-09-12T01:48:01;33.15;;;18.30;;
74845;SDS011;63393;48.758;9.254;2022-09-12T01:50:33;26.13;;;14.75;;
74845;SDS011;63393;48.758;9.254;2022-09-12T01:53:02;27.38;;;14.45;;
74845;SDS011;63393;48.758;9.254;2022-09-12T01:55:31;25.52;;;14.18;;
74845;SDS011;63393;48.758;9.254;2022-09-12T01:58:02;25.48;;;12.77;;
74845;SDS011;63393;48.758;9.254;2022-09-12T02:00:30;26.77;;;12.45;;
74845;SDS011;63393;48.758;9.254;2022-09-12T02:03:01;26.67;;;12.73;;
74845;SDS011;63393;48.758;9.254;2022-09-12T02:05:34;22.67;;;12.05;;
74845;SDS011;63393;48.758;9.254;2022-09-12T02:08:04;20.95;;;10.82;;
74845;SDS011;63393;48.758;9.254;2022-09-12T02:10:33;25.45;;;11.80;;
74845;SDS011;63393;48.758;9.254;2022-09-12T02:13:04;24.80;;;11.68;;
74845;SDS011;63393;48.758;9.254;2022-09-12T02:15:34;21.45;;;11.57;;
74845;SDS011;63393;48.758;9.254;2022-09-12T02:18:05;24.13;;;12.63;;
74845;SDS011;63393;48.758;9.254;2022-09-12T02:20:33;24.70;;;13.32;;
74845;SDS011;63393;48.758;9.254;2022-09-12T02:23:02;23.58;;;11.63;;
74845;SDS011;63393;48.758;9.254;2022-09-12T02:25:33;21.27;;;11.75;;
74845;SDS011;63393;48.758;9.254;2022-09-12T02:28:03;27.30;;;13.00;;
74845;SDS011;63393;48.758;9.254;2022-09-12T02:30:33;24.30;;;12.30;;
74845;SDS011;63393;48.758;9.254;2022-09-12T02:33:05;23.88;;;11.77;;
74845;SDS011;63393;48.758;9.254;2022-09-12T02:35:33;20.98;;;11.20;;
74845;SDS011;63393;48.758;9.254;2022-09-12T02:38:04;23.20;;;11.82;;
74845;SDS011;63393;48.758;9.254;2022-09-12T02:40:34;28.55;;;13.20;;
74845;SDS011;63393;48.758;9.254;2022-09-12T02:43:02;26.52;;;13.52;;
74845;SDS011;63393;48.758;9.254;2022-09-12T02:45:30;27.17;;;13.90;;
74845;SDS011;63393;48.758;9.254;2022-09-12T02:47:59;25.08;;;12.70;;
74845;SDS011;63393;48.758;9.254;2022-09-12T02:50:30;28.60;;;13.57;;
74845;SDS011;63393;48.758;9.254;2022-09-12T02:52:58;26.92;;;13.23;;
74845;SDS011;63393;48.758;9.254;2022-09-12T02:55:30;27.15;;;13.10;;
74845;SDS011;63393;48.758;9.254;2022-09-12T02:57:57;25.10;;;11.98;;
74845;SDS011;63393;48.758;9.254;2022-09-12T03:00:25;26.65;;;13.10;;
74845;SDS011;63393;48.758;9.254;2022-09-12T03:02:57;26.30;;;13.43;;
74845;SDS011;63393;48.758;9.254;2022-09-12T03:05:30;25.10;;;13.45;;
74845;SDS011;63393;48.758;9.254;2022-09-12T03:08:05;28.25;;;14.00;;
74845;SDS011;63393;48.758;9.254;2022-09-12T03:10:39;26.25;;;12.82;;
74845;SDS011;63393;48.758;9.254;2022-09-12T03:13:12;27.13;;;12.57;;
74845;SDS011;63393;48.758;9.254;2022-09-12T03:15:44;24.38;;;12.18;;
74845;SDS011;63393;48.758;9.254;2022-09-12T03:18:27;22.33;;;11.52;;
74845;SDS011;63393;48.758;9.254;2022-09-12T03:21:01;22.30;;;11.88;;
74845;SDS011;63393;48.758;9.254;2022-09-12T03:23:30;23.42;;;11.25;;
74845;SDS011;63393;48.758;9.254;2022-09-12T03:26:00;24.27;;;11.95;;
74845;SDS011;63393;48.758;9.254;2022-09-12T03:28:28;23.65;;;12.70;;
74845;SDS011;63393;48.758;9.254;2022-09-12T03:30:57;25.08;;;12.20;;
74845;SDS011;63393;48.758;9.254;2022-09-12T03:33:24;24.25;;;11.60;;
74845;SDS011;63393;48.758;9.254;2022-09-12T03:35:52;24.45;;;12.48;;
74845;SDS011;63393;48.758;9.254;2022-09-12T03:38:22;24.92;;;12.60;;
74845;SDS011;63393;48.758;9.254;2022-09-12T03:40:49;27.08;;;13.00;;
74845;SDS011;63393;48.758;9.254;2022-09-12T03:43:17;23.80;;;12.13;;
74845;SDS011;63393;48.758;9.254;2022-09-12T03:45:44;25.35;;;12.52;;
74845;SDS011;63393;48.758;9.254;2022-09-12T03:48:11;24.20;;;12.23;;
74845;SDS011;63393;48.758;9.254;2022-09-12T03:50:39;23.23;;;12.15;;
74845;SDS011;63393;48.758;9.254;2022-09-12T03:53:06;24.67;;;12.65;;
74845;SDS011;63393;48.758;9.254;2022-09-12T03:55:35;27.23;;;12.63;;
74845;SDS011;63393;48.758;9.254;2022-09-12T03:58:04;24.67;;;12.05;;
74845;SDS011;63393;48.758;9.254;2022-09-12T04:00:31;24.92;;;13.02;;
74845;SDS011;63393;48.758;9.254;2022-09-12T04:02:59;26.52;;;13.00;;
74845;SDS011;63393;48.758;9.254;2022-09-12T04:05:26;24.17;;;12.07;;
74845;SDS011;63393;48.758;9.254;2022-09-12T04:07:54;25.52;;;12.77;;
74845;SDS011;63393;48.758;9.254;2022-09-12T04:10:21;29.50;;;14.13;;
74845;SDS011;63393;48.758;9.254;2022-09-12T04:12:50;26.23;;;13.70;;
74845;SDS011;63393;48.758;9.254;2022-09-12T04:15:18;25.15;;;13.63;;
74845;SDS011;63393;48.758;9.254;2022-09-12T04:17:45;24.90;;;12.73;;
74845;SDS011;63393;48.758;9.254;2022-09-12T04:20:13;24.23;;;12.23;;
74845;SDS011;63393;48.758;9.254;2022-09-12T04:22:40;23.20;;;12.18;;
74845;SDS011;63393;48.758;9.254;2022-09-12T04:25:08;24.40;;;12.32;;
74845;SDS011;63393;48.758;9.254;2022-09-12T04:27:36;29.30;;;15.13;;
74845;SDS011;63393;48.758;9.254;2022-09-12T04:30:05;25.85;;;12.45;;
74845;SDS011;63393;48.758;9.254;2022-09-12T04:32:33;27.98;;;11.88;;
74845;SDS011;63393;48.758;9.254;2022-09-12T04:35:02;25.95;;;12.07;;
74845;SDS011;63393;48.758;9.254;2022-09-12T04:37:30;22.40;;;12.18;;
74845;SDS011;63393;48.758;9.254;2022-09-12T04:39:57;24.20;;;12.00;;
74845;SDS011;63393;48.758;9.254;2022-09-12T04:42:26;24.75;;;12.60;;
74845;SDS011;63393;48.758;9.254;2022-09-12T04:44:53;26.48;;;13.43;;
74845;SDS011;63393;48.758;9.254;2022-09-12T04:47:22;29.40;;;13.38;;
74845;SDS011;63393;48.758;9.254;2022-09-12T04:49:50;23.98;;;11.77;;
74845;SDS011;63393;48.758;9.254;2022-09-12T04:52:18;25.15;;;13.02;;
74845;SDS011;63393;48.758;9.254;2022-09-12T04:54:45;24.73;;;12.77;;
74845;SDS011;63393;48.758;9.254;2022-09-12T04:57:13;25.95;;;13.13;;
74845;SDS011;63393;48.758;9.254;2022-09-12T04:59:41;26.10;;;12.43;;
74845;SDS011;63393;48.758;9.254;2022-09-12T05:02:08;27.88;;;12.75;;
74845;SDS011;63393;48.758;9.254;2022-09-12T05:04:37;25.83;;;12.85;;
74845;SDS011;63393;48.758;9.254;2022-09-12T05:07:05;28.67;;;12.75;;
74845;SDS011;63393;48.758;9.254;2022-09-12T05:09:32;27.25;;;12.45;;
74845;SDS011;63393;48.758;9.254;2022-09-12T05:11:59;24.00;;;12.23;;
74845;SDS011;63393;48.758;9.254;2022-09-12T05:14:27;26.02;;;12.20;;
74845;SDS011;63393;48.758;9.254;2022-09-12T05:16:56;24.67;;;12.52;;
74845;SDS011;63393;48.758;9.254;2022-09-12T05:19:25;23.10;;;12.05;;
74845;SDS011;63393;48.758;9.254;2022-09-12T05:21:54;25.38;;;12.35;;
74845;SDS011;63393;48.758;9.254;2022-09-12T05:24:22;23.60;;;12.55;;
74845;SDS011;63393;48.758;9.254;2022-09-12T05:26:49;25.17;;;12.27;;
74845;SDS011;63393;48.758;9.254;2022-09-12T05:29:16;24.35;;;12.05;;
74845;SDS011;63393;48.758;9.254;2022-09-12T05:31:44;26.33;;;12.90;;
74845;SDS011;63393;48.758;9.254;2022-09-12T05:34:17;26.95;;;12.68;;
74845;SDS011;63393;48.758;9.254;2022-09-12T05:36:44;30.73;;;14.45;;
74845;SDS011;63393;48.758;9.254;2022-09-12T05:39:13;26.98;;;12.88;;
74845;SDS011;63393;48.758;9.254;2022-09-12T05:41:40;26.20;;;12.55;;
74845;SDS011;63393;48.758;9.254;2022-09-12T05:44:10;27.35;;;14.57;;
74845;SDS011;63393;48.758;9.254;2022-09-12T05:46:38;25.17;;;13.63;;
74845;SDS011;63393;48.758;9.254;2022-09-12T05:49:06;25.73;;;13.32;;
74845;SDS011;63393;48.758;9.254;2022-09-12T05:51:35;27.40;;;14.40;;
74845;SDS011;63393;48.758;9.254;2022-09-12T05:54:04;30.80;;;15.35;;
74845;SDS011;63393;48.758;9.254;2022-09-12T05:56:35;27.48;;;13.43;;
74845;SDS011;63393;48.758;9.254;2022-09-12T05:59:04;31.13;;;13.55;;
74845;SDS011;63393;48.758;9.254;2022-09-12T06:01:32;27.45;;;14.50;;
74845;SDS011;63393;48.758;9.254;2022-09-12T06:04:00;29.13;;;14.50;;
74845;SDS011;63393;48.758;9.254;2022-09-12T06:06:28;29.00;;;14.80;;
74845;SDS011;63393;48.758;9.254;2022-09-12T06:08:57;27.15;;;13.82;;
74845;SDS011;63393;48.758;9.254;2022-09-12T06:11:27;29.33;;;13.95;;
74845;SDS011;63393;48.758;9.254;2022-09-12T06:13:56;25.80;;;13.27;;
74845;SDS011;63393;48.758;9.254;2022-09-12T06:16:25;28.52;;;14.23;;
74845;SDS011;63393;48.758;9.254;2022-09-12T06:18:53;34.00;;;13.60;;
74845;SDS011;63393;48.758;9.254;2022-09-12T06:21:21;26.02;;;13.63;;
74845;SDS011;63393;48.758;9.254;2022-09-12T06:23:49;24.48;;;12.55;;
74845;SDS011;63393;48.758;9.254;2022-09-12T06:26:17;24.80;;;12.13;;
74845;SDS011;63393;48.758;9.254;2022-09-12T06:28:46;25.63;;;13.15;;
74845;SDS011;63393;48.758;9.254;2022-09-12T06:31:15;21.40;;;11.95;;
74845;SDS011;63393;48.758;9.254;2022-09-12T06:33:45;24.85;;;12.13;;
74845;SDS011;63393;48.758;9.254;2022-09-12T06:36:13;25.88;;;12.15;;
74845;SDS011;63393;48.758;9.254;2022-09-12T06:38:41;26.10;;;13.70;;
74845;SDS011;63393;48.758;9.254;2022-09-12T06:41:11;26.17;;;12.55;;
74845;SDS011;63393;48.758;9.254;2022-09-12T06:43:38;26.67;;;12.20;;
74845;SDS011;63393;48.758;9.254;2022-09-12T06:46:06;23.60;;;11.90;;
74845;SDS011;63393;48.758;9.254;2022-09-12T06:48:35;22.40;;;12.10;;
74845;SDS011;63393;48.758;9.254;2022-09-12T06:51:04;25.17;;;12.43;;
74845;SDS011;63393;48.758;9.254;2022-09-12T06:53:32;23.88;;;12.18;;
74845;SDS011;63393;48.758;9.254;2022-09-12T06:56:01;24.00;;;11.82;;
74845;SDS011;63393;48.758;9.254;2022-09-12T06:58:29;23.65;;;12.73;;
74845;SDS011;63393;48.758;9.254;2022-09-12T07:00:59;24.17;;;11.95;;
74845;SDS011;63393;48.758;9.254;2022-09-12T07:03:28;24.37;;;12.37;;
74845;SDS011;63393;48.758;9.254;2022-09-12T07:06:00;23.45;;;12.52;;
74845;SDS011;63393;48.758;9.254;2022-09-12T07:08:28;23.67;;;12.23;;
74845;SDS011;63393;48.758;9.254;2022-09-12T07:10:55;25.52;;;12.98;;
74845;SDS011;63393;48.758;9.254;2022-09-12T07:13:23;24.02;;;12.07;;
74845;SDS011;63393;48.758;9.254;2022-09-12T07:15:51;23.17;;;12.13;;
74845;SDS011;63393;48.758;9.254;2022-09-12T07:18:18;23.45;;;11.38;;
74845;SDS011;63393;48.758;9.254;2022-09-12T07:20:46;21.55;;;11.25;;
74845;SDS011;63393;48.758;9.254;2022-09-12T07:23:15;23.70;;;11.77;;
74845;SDS011;63393;48.758;9.254;2022-09-12T07:25:42;21.88;;;10.50;;
74845;SDS011;63393;48.758;9.254;2022-09-12T07:28:10;26.60;;;11.32;;
74845;SDS011;63393;48.758;9.254;2022-09-12T07:30:37;23.25;;;11.13;;
74845;SDS011;63393;48.758;9.254;2022-09-12T07:33:05;20.08;;;10.45;;
74845;SDS011;63393;48.758;9.254;2022-09-12T07:35:32;21.23;;;10.85;;
74845;SDS011;63393;48.758;9.254;2022-09-12T07:38:00;18.60;;;10.18;;
74845;SDS011;63393;48.758;9.254;2022-09-12T07:40:29;21.50;;;10.60;;
74845;SDS011;63393;48.758;9.254;2022-09-12T07:42:56;22.38;;;10.70;;
74845;SDS011;63393;48.758;9.254;2022-09-12T07:45:25;23.42;;;10.73;;
74845;SDS011;63393;48.758;9.254;2022-09-12T07:47:52;22.58;;;11.40;;
74845;SDS011;63393;48.758;9.254;2022-09-12T07:50:20;22.30;;;9.77;;
74845;SDS011;63393;48.758;9.254;2022-09-12T07:52:48;23.95;;;10.57;;
74845;SDS011;63393;48.758;9.254;2022-09-12T07:55:15;17.98;;;9.63;;
74845;SDS011;63393;48.758;9.254;2022-09-12T07:57:45;19.00;;;9.15;;
74845;SDS011;63393;48.758;9.254;2022-09-12T08:00:15;21.33;;;10.30;;
74845;SDS011;63393;48.758;9.254;2022-09-12T08:02:42;19.20;;;9.57;;
74845;SDS011;63393;48.758;9.254;2022-09-12T08:05:10;20.55;;;9.45;;
74845;SDS011;63393;48.758;9.254;2022-09-12T08:07:37;18.75;;;9.35;;
74845;SDS011;63393;48.758;9.254;2022-09-12T08:10:05;20.90;;;9.68;;
74845;SDS011;63393;48.758;9.254;2022-09-12T08:12:33;17.90;;;9.20;;
74845;SDS011;63393;48.758;9.254;2022-09-12T08:15:02;17.52;;;9.38;;
74845;SDS011;63393;48.758;9.254;2022-09-12T08:17:30;17.50;;;9.32;;
74845;SDS011;63393;48.758;9.254;2022-09-12T08:19:58;16.95;;;8.50;;
74845;SDS011;63393;48.758;9.254;2022-09-12T08:22:25;16.65;;;8.48;;
74845;SDS011;63393;48.758;9.254;2022-09-12T08:24:52;19.58;;;8.70;;
74845;SDS011;63393;48.758;9.254;2022-09-12T08:27:20;17.80;;;9.10;;
74845;SDS011;63393;48.758;9.254;2022-09-12T08:29:47;17.17;;;8.68;;
74845;SDS011;63393;48.758;9.254;2022-09-12T08:32:17;17.10;;;9.07;;
74845;SDS011;63393;48.758;9.254;2022-09-12T08:34:45;17.55;;;8.82;;
74845;SDS011;63393;48.758;9.254;2022-09-12T08:37:12;17.75;;;8.77;;
74845;SDS011;63393;48.758;9.254;2022-09-12T08:39:40;18.50;;;8.98;;
74845;SDS011;63393;48.758;9.254;2022-09-12T08:42:08;17.63;;;8.55;;
74845;SDS011;63393;48.758;9.254;2022-09-12T08:44:46;13.90;;;7.15;;
74845;SDS011;63393;48.758;9.254;2022-09-12T08:47:20;16.73;;;6.90;;
74845;SDS011;63393;48.758;9.254;2022-09-12T08:49:52;14.40;;;7.70;;
74845;SDS011;63393;48.758;9.254;2022-09-12T08:52:21;14.68;;;7.28;;
74845;SDS011;63393;48.758;9.254;2022-09-12T08:54:50;16.00;;;7.47;;
74845;SDS011;63393;48.758;9.254;2022-09-12T08:57:18;18.10;;;7.47;;
74845;SDS011;63393;48.758;9.254;2022-09-12T08:59:46;14.20;;;6.43;;
74845;SDS011;63393;48.758;9.254;2022-09-12T09:02:21;15.98;;;7.45;;
74845;SDS011;63393;48.758;9.254;2022-09-12T09:04:53;14.02;;;6.70;;
74845;SDS011;63393;48.758;9.254;2022-09-12T09:07:32;12.13;;;5.70;;
74845;SDS011;63393;48.758;9.254;2022-09-12T09:10:08;13.73;;;5.78;;
74845;SDS011;63393;48.758;9.254;2022-09-12T09:12:41;16.13;;;6.72;;
74845;SDS011;63393;48.758;9.254;2022-09-12T09:15:16;12.45;;;5.07;;
74845;SDS011;63393;48.758;9.254;2022-09-12T09:17:49;12.90;;;5.30;;
74845;SDS011;63393;48.758;9.254;2022-09-12T09:20:20;12.38;;;5.55;;
74845;SDS011;63393;48.758;9.254;2022-09-12T09:22:49;10.23;;;4.50;;
74845;SDS011;63393;48.758;9.254;2022-09-12T09:25:19;12.25;;;4.65;;
74845;SDS011;63393;48.758;9.254;2022-09-12T09:27:48;10.70;;;3.95;;
74845;SDS011;63393;48.758;9.254;2022-09-12T09:30:17;11.40;;;3.80;;
74845;SDS011;63393;48.758;9.254;2022-09-12T09:32:47;12.45;;;4.55;;
74845;SDS011;63393;48.758;9.254;2022-09-12T09:35:17;13.07;;;4.25;;
74845;SDS011;63393;48.758;9.254;2022-09-12T09:37:51;10.77;;;4.53;;
74845;SDS011;63393;48.758;9.254;2022-09-12T09:40:22;9.90;;;4.10;;
74845;SDS011;63393;48.758;9.254;2022-09-12T09:42:52;11.65;;;3.58;;
74845;SDS011;63393;48.758;9.254;2022-09-12T09:45:23;10.30;;;3.92;;
74845;SDS011;63393;48.758;9.254;2022-09-12T09:47:55;10.57;;;4.25;;
74845;SDS011;63393;48.758;9.254;2022-09-12T09:50:25;10.33;;;4.10;;
74845;SDS011;63393;48.758;9.254;2022-09-12T09:52:53;10.98;;;4.38;;
74845;SDS011;63393;48.758;9.254;2022-09-12T09:55:22;7.18;;;3.13;;
74845;SDS011;63393;48.758;9.254;2022-09-12T09:57:51;8.35;;;3.42;;
74845;SDS011;63393;48.758;9.254;2022-09-12T10:00:19;8.13;;;3.45;;
74845;SDS011;63393;48.758;9.254;2022-09-12T10:03:01;10.02;;;3.72;;
74845;SDS011;63393;48.758;9.254;2022-09-12T10:05:32;8.40;;;3.10;;
74845;SDS011;63393;48.758;9.254;2022-09-12T10:08:01;9.00;;;3.42;;
74845;SDS011;63393;48.758;9.254;2022-09-12T10:10:30;8.38;;;3.70;;
74845;SDS011;63393;48.758;9.254;2022-09-12T10:13:07;6.25;;;3.10;;
74845;SDS011;63393;48.758;9.254;2022-09-12T10:15:35;8.18;;;3.45;;
74845;SDS011;63393;48.758;9.254;2022-09-12T10:18:03;7.50;;;3.00;;
74845;SDS011;63393;48.758;9.254;2022-09-12T10:20:34;8.05;;;3.03;;
74845;SDS011;63393;48.758;9.254;2022-09-12T10:23:14;10.85;;;3.17;;
74845;SDS011;63393;48.758;9.254;2022-09-12T10:25:44;8.38;;;3.42;;
74845;SDS011;63393;48.758;9.254;2022-09-12T10:28:16;7.45;;;3.47;;
74845;SDS011;63393;48.758;9.254;2022-09-12T10:30:49;10.32;;;4.13;;
74845;SDS011;63393;48.758;9.254;2022-09-12T10:33:17;8.15;;;3.58;;
74845;SDS011;63393;48.758;9.254;2022-09-12T10:35:46;8.40;;;3.10;;
74845;SDS011;63393;48.758;9.254;2022-09-12T10:38:16;9.63;;;3.97;;
74845;SDS011;63393;48.758;9.254;2022-09-12T10:40:45;8.10;;;3.10;;
74845;SDS011;63393;48.758;9.254;2022-09-12T10:43:24;8.13;;;3.00;;
74845;SDS011;63393;48.758;9.254;2022-09-12T10:45:55;8.45;;;2.92;;
74845;SDS011;63393;48.758;9.254;2022-09-12T10:48:24;10.85;;;3.50;;
74845;SDS011;63393;48.758;9.254;2022-09-12T10:50:55;6.47;;;2.60;;
74845;SDS011;63393;48.758;9.254;2022-09-12T10:53:23;5.97;;;2.60;;
74845;SDS011;63393;48.758;9.254;2022-09-12T10:56:00;7.68;;;2.80;;
74845;SDS011;63393;48.758;9.254;2022-09-12T10:58:33;7.25;;;3.00;;
74845;SDS011;63393;48.758;9.254;2022-09-12T11:01:04;6.63;;;2.92;;
74845;SDS011;63393;48.758;9.254;2022-09-12T11:03:38;7.28;;;3.00;;
74845;SDS011;63393;48.758;9.254;2022-09-12T11:06:11;6.43;;;2.92;;
74845;SDS011;63393;48.758;9.254;2022-09-12T11:08:54;7.65;;;2.80;;
74845;SDS011;63393;48.758;9.254;2022-09-12T11:11:28;8.18;;;3.20;;
74845;SDS011;63393;48.758;9.254;2022-09-12T11:14:00;7.95;;;3.08;;
74845;SDS011;63393;48.758;9.254;2022-09-12T11:16:35;7.80;;;2.92;;
74845;SDS011;63393;48.758;9.254;2022-09-12T11:19:09;6.35;;;2.70;;
74845;SDS011;63393;48.758;9.254;2022-09-12T11:21:45;6.03;;;2.88;;
74845;SDS011;63393;48.758;9.254;2022-09-12T11:24:25;6.50;;;2.60;;
74845;SDS011;63393;48.758;9.254;2022-09-12T11:26:59;7.13;;;3.03;;
74845;SDS011;63393;48.758;9.254;2022-09-12T11:34:39;11.40;;;3.45;;
74845;SDS011;63393;48.758;9.254;2022-09-12T11:37:18;6.22;;;2.50;;
74845;SDS011;63393;48.758;9.254;2022-09-12T11:39:50;7.20;;;2.90;;
74845;SDS011;63393;48.758;9.254;2022-09-12T11:42:19;6.03;;;2.60;;
74845;SDS011;63393;48.758;9.254;2022-09-12T11:44:54;6.78;;;2.50;;
74845;SDS011;63393;48.758;9.254;2022-09-12T11:47:23;5.05;;;2.40;;
74845;SDS011;63393;48.758;9.254;2022-09-12T11:49:51;4.65;;;2.42;;
74845;SDS011;63393;48.758;9.254;2022-09-12T11:52:21;7.47;;;2.90;;
74845;SDS011;63393;48.758;9.254;2022-09-12T11:54:51;9.25;;;2.58;;
74845;SDS011;63393;48.758;9.254;2022-09-12T11:57:24;7.10;;;2.63;;
74845;SDS011;63393;48.758;9.254;2022-09-12T11:59:53;8.88;;;2.42;;
74845;SDS011;63393;48.758;9.254;2022-09-12T12:02:24;6.03;;;2.45;;
74845;SDS011;63393;48.758;9.254;2022-09-12T12:05:03;4.82;;;2.30;;
74845;SDS011;63393;48.758;9.254;2022-09-12T12:07:33;4.78;;;2.15;;
74845;SDS011;63393;48.758;9.254;2022-09-12T12:10:04;8.50;;;2.38;;
74845;SDS011;63393;48.758;9.254;2022-09-12T12:12:31;5.43;;;2.47;;
74845;SDS011;63393;48.758;9.254;2022-09-12T12:14:59;5.07;;;2.33;;
74845;SDS011;63393;48.758;9.254;2022-09-12T12:17:27;6.35;;;2.53;;
74845;SDS011;63393;48.758;9.254;2022-09-12T12:19:58;5.93;;;2.20;;
74845;SDS011;63393;48.758;9.254;2022-09-12T12:22:26;2.80;;;1.50;;
74845;SDS011;63393;48.758;9.254;2022-09-12T12:25:01;3.35;;;1.40;;
74845;SDS011;63393;48.758;9.254;2022-09-12T12:27:45;5.40;;;1.98;;
74845;SDS011;63393;48.758;9.254;2022-09-12T12:32:59;5.95;;;2.05;;
74845;SDS011;63393;48.758;9.254;2022-09-12T12:35:37;4.32;;;2.00;;
74845;SDS011;63393;48.758;9.254;2022-09-12T12:38:11;4.20;;;2.00;;
74845;SDS011;63393;48.758;9.254;2022-09-12T12:40:53;3.92;;;2.00;;
74845;SDS011;63393;48.758;9.254;2022-09-12T12:43:27;6.50;;;2.70;;
74845;SDS011;63393;48.758;9.254;2022-09-12T12:46:03;6.03;;;1.92;;
74845;SDS011;63393;48.758;9.254;2022-09-12T12:51:28;9.00;;;2.70;;
74845;SDS011;63393;48.758;9.254;2022-09-12T12:53:56;6.63;;;2.45;;
74845;SDS011;63393;48.758;9.254;2022-09-12T12:56:27;7.72;;;2.28;;
74845;SDS011;63393;48.758;9.254;2022-09-12T12:58:56;8.02;;;2.10;;
74845;SDS011;63393;48.758;9.254;2022-09-12T13:01:24;5.97;;;1.90;;
74845;SDS011;63393;48.758;9.254;2022-09-12T13:03:53;5.18;;;2.10;;
74845;SDS011;63393;48.758;9.254;2022-09-12T13:06:28;3.85;;;1.80;;
74845;SDS011;63393;48.758;9.254;2022-09-12T13:08:58;5.63;;;2.10;;
74845;SDS011;63393;48.758;9.254;2022-09-12T13:11:28;4.55;;;1.88;;
74845;SDS011;63393;48.758;9.254;2022-09-12T13:13:57;6.05;;;2.30;;
74845;SDS011;63393;48.758;9.254;2022-09-12T13:16:30;6.10;;;2.28;;
74845;SDS011;63393;48.758;9.254;2022-09-12T13:19:00;4.50;;;2.28;;
74845;SDS011;63393;48.758;9.254;2022-09-12T13:23:59;5.32;;;1.80;;
74845;SDS011;63393;48.758;9.254;2022-09-12T13:26:31;9.10;;;2.20;;
74845;SDS011;63393;48.758;9.254;2022-09-12T13:29:09;4.97;;;2.15;;
74845;SDS011;63393;48.758;9.254;2022-09-12T13:31:37;7.43;;;2.30;;
74845;SDS011;63393;48.758;9.254;2022-09-12T13:34:05;6.97;;;2.10;;
74845;SDS011;63393;48.758;9.254;2022-09-12T13:36:41;3.80;;;1.88;;
74845;SDS011;63393;48.758;9.254;2022-09-12T13:39:20;4.25;;;1.80;;
74845;SDS011;63393;48.758;9.254;2022-09-12T13:44:39;6.22;;;1.70;;
74845;SDS011;63393;48.758;9.254;2022-09-12T13:47:07;5.20;;;1.85;;
74845;SDS011;63393;48.758;9.254;2022-09-12T13:49:38;3.83;;;1.50;;
74845;SDS011;63393;48.758;9.254;2022-09-12T13:52:07;4.05;;;1.60;;
74845;SDS011;63393;48.758;9.254;2022-09-12T13:54:36;5.35;;;1.60;;
74845;SDS011;63393;48.758;9.254;2022-09-12T13:57:04;4.95;;;1.50;;
74845;SDS011;63393;48.758;9.254;2022-09-12T13:59:36;2.05;;;1.20;;
74845;SDS011;63393;48.758;9.254;2022-09-12T14:02:16;2.13;;;1.20;;
74845;SDS011;63393;48.758;9.254;2022-09-12T14:04:50;6.10;;;1.38;;
74845;SDS011;63393;48.758;9.254;2022-09-12T14:07:45;2.57;;;1.33;;
74845;SDS011;63393;48.758;9.254;2022-09-12T14:10:19;2.58;;;1.40;;
74845;SDS011;63393;48.758;9.254;2022-09-12T14:12:47;4.90;;;1.40;;
74845;SDS011;63393;48.758;9.254;2022-09-12T14:15:15;5.43;;;1.60;;
74845;SDS011;63393;48.758;9.254;2022-09-12T14:17:48;4.40;;;1.70;;
74845;SDS011;63393;48.758;9.254;2022-09-12T14:20:17;5.97;;;2.38;;
74845;SDS011;63393;48.758;9.254;2022-09-12T14:22:45;3.45;;;1.65;;
74845;SDS011;63393;48.758;9.254;2022-09-12T14:25:13;3.15;;;1.63;;
74845;SDS011;63393;48.758;9.254;2022-09-12T14:27:42;3.67;;;1.60;;
74845;SDS011;63393;48.758;9.254;2022-09-12T14:30:22;3.50;;;1.50;;
74845;SDS011;63393;48.758;9.254;2022-09-12T14:33:12;9.35;;;3.53;;
74845;SDS011;63393;48.758;9.254;2022-09-12T14:35:46;4.43;;;1.60;;
74845;SDS011;63393;48.758;9.254;2022-09-12T14:38:17;3.67;;;1.67;;
74845;SDS011;63393;48.758;9.254;2022-09-12T14:43:17;2.80;;;1.50;;
74845;SDS011;63393;48.758;9.254;2022-09-12T14:45:50;5.38;;;1.90;;
74845;SDS011;63393;48.758;9.254;2022-09-12T14:48:20;4.53;;;1.92;;
74845;SDS011;63393;48.758;9.254;2022-09-12T14:50:48;4.72;;;1.92;;
74845;SDS011;63393;48.758;9.254;2022-09-12T14:53:21;4.80;;;1.80;;
74845;SDS011;63393;48.758;9.254;2022-09-12T14:55:51;8.70;;;2.20;;
74845;SDS011;63393;48.758;9.254;2022-09-12T14:58:22;6.18;;;2.13;;
74845;SDS011;63393;48.758;9.254;2022-09-12T15:00:55;3.53;;;1.80;;
74845;SDS011;63393;48.758;9.254;2022-09-12T15:03:25;4.70;;;1.70;;
74845;SDS011;63393;48.758;9.254;2022-09-12T15:05:53;6.93;;;2.33;;
74845;SDS011;63393;48.758;9.254;2022-09-12T15:08:21;7.88;;;2.10;;
74845;SDS011;63393;48.758;9.254;2022-09-12T15:10:49;6.95;;;2.00;;
74845;SDS011;63393;48.758;9.254;2022-09-12T15:13:19;3.80;;;1.90;;
74845;SDS011;63393;48.758;9.254;2022-09-12T15:15:47;4.35;;;1.80;;